createdAt,value
2022-11-27T00:01:38.446Z,1.39
2022-11-27T00:04:07.739Z,1.37
2022-11-27T00:06:36.537Z,1.41
2022-11-27T00:09:08.628Z,1.43
2022-11-27T00:11:39.118Z,1.42
2022-11-27T00:14:12.580Z,1.44
2022-11-27T00:16:42.439Z,1.43
2022-11-27T00:19:11.241Z,1.40
2022-11-27T00:21:39.808Z,1.37
2022-11-27T00:24:09.009Z,1.38
2022-11-27T00:26:38.255Z,1.36
2022-11-27T00:29:09.788Z,1.37
2022-11-27T00:31:38.758Z,1.38
2022-11-27T00:34:08.295Z,1.37
2022-11-27T00:36:37.800Z,1.36
2022-11-27T00:39:06.425Z,1.40
2022-11-27T00:41:37.437Z,1.41
2022-11-27T00:44:07.694Z,1.41
2022-11-27T00:46:36.700Z,1.40
2022-11-27T00:49:06.116Z,1.41
2022-11-27T00:51:34.844Z,1.43
2022-11-27T00:54:04.314Z,1.40
2022-11-27T00:56:37.115Z,1.41
2022-11-27T00:59:06.315Z,1.43
2022-11-27T01:01:38.795Z,1.43
2022-11-27T01:04:09.390Z,1.45
2022-11-27T01:06:38.192Z,1.48
2022-11-27T01:09:07.151Z,1.47
2022-11-27T01:11:36.040Z,1.46
2022-11-27T01:14:08.890Z,1.48
2022-11-27T01:16:42.648Z,1.46
2022-11-27T01:19:11.000Z,1.46
2022-11-27T01:21:40.128Z,1.43
2022-11-27T01:24:11.012Z,1.38
2022-11-27T01:26:39.933Z,1.38
2022-11-27T01:29:09.403Z,1.38
2022-11-27T01:31:38.264Z,1.37
2022-11-27T01:34:10.683Z,1.35
2022-11-27T01:36:39.362Z,1.35
2022-11-27T01:39:08.134Z,1.34
2022-11-27T01:41:40.008Z,1.34
2022-11-27T01:44:35.288Z,1.36
2022-11-27T01:47:07.492Z,1.35
2022-11-27T01:49:42.808Z,1.36
2022-11-27T01:52:29.251Z,1.36
2022-11-27T01:55:03.424Z,1.34
2022-11-27T01:57:52.236Z,1.36
2022-11-27T02:00:22.539Z,1.38
2022-11-27T02:02:52.066Z,1.36
2022-11-27T02:05:24.853Z,1.37
2022-11-27T02:07:53.800Z,1.37
2022-11-27T02:10:52.124Z,1.40
2022-11-27T02:13:29.497Z,1.40
2022-11-27T02:16:33.216Z,1.41
2022-11-27T02:19:27.314Z,1.40
2022-11-27T02:22:27.140Z,1.40
2022-11-27T02:25:28.581Z,1.41
2022-11-27T02:28:03.059Z,1.40
2022-11-27T02:30:35.184Z,1.40
2022-11-27T02:33:05.538Z,1.42
2022-11-27T02:35:42.406Z,1.42
2022-11-27T02:38:25.113Z,1.38
2022-11-27T02:41:04.527Z,1.34
2022-11-27T02:43:43.330Z,1.34
2022-11-27T02:46:13.128Z,1.33
2022-11-27T02:48:57.080Z,1.36
2022-11-27T02:51:31.037Z,1.38
2022-11-27T02:54:03.039Z,1.35
2022-11-27T02:56:32.425Z,1.35
2022-11-27T02:59:06.540Z,1.38
2022-11-27T03:01:40.961Z,1.35
2022-11-27T03:04:13.536Z,1.33
2022-11-27T03:06:50.525Z,1.34
2022-11-27T03:09:34.979Z,1.33
2022-11-27T03:12:05.309Z,1.35
2022-11-27T03:14:35.628Z,1.38
2022-11-27T03:17:34.110Z,1.38
2022-11-27T03:20:28.835Z,1.36
2022-11-27T03:22:57.854Z,1.41
2022-11-27T03:25:26.563Z,1.40
2022-11-27T03:28:00.636Z,1.40
2022-11-27T03:30:31.241Z,1.43
2022-11-27T03:33:00.941Z,1.47
2022-11-27T03:35:31.753Z,1.49
2022-11-27T03:38:02.348Z,1.49
2022-11-27T03:40:43.771Z,1.49
2022-11-27T03:43:19.187Z,1.48
2022-11-27T03:46:00.824Z,1.43
2022-11-27T03:49:01.359Z,1.38
2022-11-27T03:51:51.301Z,1.39
2022-11-27T03:54:40.874Z,1.37
2022-11-27T03:57:35.061Z,1.35
2022-11-27T04:00:07.817Z,1.36
2022-11-27T04:02:46.961Z,1.36
2022-11-27T04:05:15.819Z,1.36
2022-11-27T04:07:46.181Z,1.36
2022-11-27T04:10:15.271Z,1.35
2022-11-27T04:12:43.989Z,1.38
2022-11-27T04:15:13.562Z,1.40
2022-11-27T04:17:44.203Z,1.40
2022-11-27T04:20:16.232Z,1.41
2022-11-27T04:22:47.385Z,1.40
2022-11-27T04:25:17.244Z,1.39
2022-11-27T04:27:45.943Z,1.41
2022-11-27T04:30:17.258Z,1.43
2022-11-27T04:32:46.200Z,1.44
2022-11-27T04:35:15.069Z,1.44
2022-11-27T04:37:45.262Z,1.42
2022-11-27T04:40:15.568Z,1.39
2022-11-27T04:42:45.137Z,1.42
2022-11-27T04:45:14.276Z,1.40
2022-11-27T04:47:42.942Z,1.39
2022-11-27T04:50:12.192Z,1.36
2022-11-27T04:52:41.930Z,1.33
2022-11-27T04:55:11.119Z,1.31
2022-11-27T04:57:39.930Z,1.32
2022-11-27T05:00:10.012Z,1.33
2022-11-27T05:02:40.102Z,1.32
2022-11-27T05:05:10.235Z,1.31
2022-11-27T05:07:40.259Z,1.29
2022-11-27T05:10:10.586Z,1.26
2022-11-27T05:12:39.628Z,1.25
2022-11-27T05:15:09.734Z,1.23
2022-11-27T05:17:38.535Z,1.21
2022-11-27T05:20:08.894Z,1.21
2022-11-27T05:22:38.009Z,1.22
2022-11-27T05:25:07.910Z,1.20
2022-11-27T05:27:36.685Z,1.19
2022-11-27T05:30:09.658Z,1.17
2022-11-27T05:32:39.010Z,1.17
2022-11-27T05:35:08.608Z,1.19
2022-11-27T05:37:38.836Z,1.20
2022-11-27T05:40:10.101Z,1.21
2022-11-27T05:42:39.166Z,1.22
2022-11-27T05:45:09.505Z,1.25
2022-11-27T05:47:38.808Z,1.25
2022-11-27T05:50:08.489Z,1.26
2022-11-27T05:52:36.940Z,1.28
2022-11-27T05:55:06.867Z,1.25
2022-11-27T05:57:35.732Z,1.25
2022-11-27T06:00:06.029Z,1.24
2022-11-27T06:02:34.646Z,1.22
2022-11-27T06:05:04.331Z,1.19
2022-11-27T06:07:33.035Z,1.20
2022-11-27T06:10:03.631Z,1.21
2022-11-27T06:12:32.891Z,1.22
2022-11-27T06:15:02.013Z,1.21
2022-11-27T06:17:31.392Z,1.23
2022-11-27T06:20:00.116Z,1.24
2022-11-27T06:22:29.250Z,1.27
2022-11-27T06:24:58.002Z,1.28
2022-11-27T06:27:27.120Z,1.28
2022-11-27T06:29:55.880Z,1.29
2022-11-27T06:32:25.011Z,1.30
2022-11-27T06:34:53.935Z,1.28
2022-11-27T06:37:22.531Z,1.29
2022-11-27T06:39:52.727Z,1.34
2022-11-27T06:42:21.432Z,1.33
2022-11-27T06:44:50.208Z,1.33
2022-11-27T06:47:19.694Z,1.36
2022-11-27T06:49:49.613Z,1.35
2022-11-27T06:52:18.499Z,1.32
2022-11-27T06:54:47.312Z,1.26
2022-11-27T06:57:16.114Z,1.25
2022-11-27T06:59:46.234Z,1.26
2022-11-27T07:02:16.676Z,1.24
2022-11-27T07:04:46.118Z,1.23
2022-11-27T07:07:15.557Z,1.24
2022-11-27T07:09:46.164Z,1.24
2022-11-27T07:12:15.875Z,1.23
2022-11-27T07:14:45.744Z,1.21
2022-11-27T07:17:16.094Z,1.17
2022-11-27T07:19:45.358Z,1.18
2022-11-27T07:22:16.144Z,1.17
2022-11-27T07:24:45.048Z,1.16
2022-11-27T07:27:14.492Z,1.14
2022-11-27T07:29:43.497Z,1.14
2022-11-27T07:32:12.460Z,1.16
2022-11-27T07:34:41.168Z,1.16
2022-11-27T07:37:10.564Z,1.14
2022-11-27T07:40:01.257Z,1.15
2022-11-27T07:42:39.723Z,1.18
2022-11-27T07:44:42.380Z,1.17
2022-11-27T07:47:12.806Z,1.16
2022-11-27T07:49:41.693Z,1.19
2022-11-27T07:52:10.946Z,1.21
2022-11-27T07:54:40.506Z,1.20
2022-11-27T07:57:10.094Z,1.22
2022-11-27T07:59:43.031Z,1.21
2022-11-27T08:02:13.785Z,1.18
2022-11-27T08:04:44.500Z,1.19
2022-11-27T08:07:15.746Z,1.20
2022-11-27T08:09:44.915Z,1.16
2022-11-27T08:12:13.526Z,1.13
2022-11-27T08:14:42.730Z,1.13
2022-11-27T08:17:13.398Z,1.15
2022-11-27T08:19:42.228Z,1.16
2022-11-27T08:22:16.825Z,1.15
2022-11-27T08:24:47.888Z,1.14
2022-11-27T08:27:16.447Z,1.14
2022-11-27T08:29:45.612Z,1.15
2022-11-27T08:32:14.392Z,1.15
2022-11-27T08:34:43.782Z,1.14
2022-11-27T08:37:13.223Z,1.14
2022-11-27T08:39:42.163Z,1.10
2022-11-27T08:42:11.431Z,1.09
2022-11-27T08:44:41.296Z,1.11
2022-11-27T08:47:10.496Z,1.12
2022-11-27T08:49:43.656Z,1.12
2022-11-27T08:52:11.229Z,1.11
2022-11-27T08:54:41.789Z,1.10
2022-11-27T08:57:11.067Z,1.11
2022-11-27T08:59:41.406Z,1.12
2022-11-27T09:02:13.133Z,1.12
2022-11-27T09:04:42.455Z,1.15
2022-11-27T09:07:17.684Z,1.17
2022-11-27T09:09:46.685Z,1.18
2022-11-27T09:12:15.580Z,1.17
2022-11-27T09:14:45.464Z,1.16
2022-11-27T09:17:14.171Z,1.15
2022-11-27T09:19:42.668Z,1.15
2022-11-27T09:22:11.253Z,1.16
2022-11-27T09:24:40.628Z,1.18
2022-11-27T09:27:09.617Z,1.20
2022-11-27T09:29:38.986Z,1.20
2022-11-27T09:32:07.662Z,1.21
2022-11-27T09:34:39.715Z,1.20
2022-11-27T09:37:09.160Z,1.17
2022-11-27T09:39:38.944Z,1.16
2022-11-27T09:42:10.682Z,1.13
2022-11-27T09:44:55.509Z,1.13
2022-11-27T09:47:44.329Z,1.14
2022-11-27T09:50:21.937Z,1.13
2022-11-27T09:53:05.755Z,1.11
2022-11-27T09:55:40.649Z,1.11
2022-11-27T09:58:26.105Z,1.09
2022-11-27T10:00:55.848Z,1.09
2022-11-27T10:03:26.419Z,1.09
2022-11-27T10:06:27.978Z,1.08
2022-11-27T17:06:53.324Z,0.91
2022-11-27T17:09:23.921Z,0.90
2022-11-27T17:11:52.788Z,0.90
2022-11-27T17:14:21.842Z,0.91
2022-11-27T17:16:50.705Z,0.89
2022-11-27T17:19:22.021Z,0.89
2022-11-27T17:21:53.313Z,0.88
2022-11-27T17:24:24.102Z,0.87
2022-11-27T17:26:54.639Z,0.90
2022-11-27T17:29:25.133Z,0.91
2022-11-27T17:31:54.859Z,0.91
2022-11-27T17:34:25.343Z,0.91
2022-11-27T17:36:56.188Z,0.94
2022-11-27T17:39:25.445Z,0.95
2022-11-27T17:41:54.166Z,0.97
2022-11-27T17:44:22.808Z,0.97
2022-11-27T17:46:51.445Z,0.98
2022-11-27T17:49:21.734Z,0.98
2022-11-27T17:51:51.444Z,0.98
2022-11-27T17:54:21.028Z,0.95
2022-11-27T17:56:51.384Z,0.96
2022-11-27T17:59:20.915Z,0.97
2022-11-27T18:01:51.846Z,0.98
2022-11-27T18:04:20.596Z,0.99
2022-11-27T18:06:49.498Z,0.98
2022-11-27T18:09:19.985Z,0.99
2022-11-27T18:11:49.107Z,0.97
2022-11-27T18:14:18.026Z,0.95
2022-11-27T18:16:47.114Z,0.95
2022-11-27T18:19:17.555Z,0.94
2022-11-27T18:21:46.350Z,0.94
2022-11-27T18:24:23.885Z,0.92
2022-11-27T18:29:17.219Z,0.95
2022-11-27T18:31:46.600Z,0.94
2022-11-27T18:34:15.564Z,0.91
2022-11-27T18:36:45.500Z,0.88
2022-11-27T18:39:14.015Z,0.87
2022-11-27T18:41:42.756Z,0.87
2022-11-27T18:44:11.528Z,0.88
2022-11-27T18:46:40.345Z,0.86
2022-11-27T18:49:08.972Z,0.86
2022-11-27T18:51:38.493Z,0.87
2022-11-27T18:54:08.248Z,0.88
2022-11-27T18:56:37.312Z,0.85
2022-11-27T18:59:06.506Z,0.82
2022-11-27T19:01:41.817Z,0.82
2022-11-27T19:04:08.231Z,0.79
2022-11-27T22:54:54.754Z,0.62
2022-11-27T22:57:25.937Z,0.63
2022-11-27T22:59:55.484Z,0.66
2022-11-27T23:02:26.890Z,0.68
2022-11-27T23:04:56.181Z,0.71
2022-11-27T23:07:26.218Z,0.69
2022-11-27T23:09:56.269Z,0.67
2022-11-27T23:12:26.438Z,0.62
2022-11-27T23:14:55.089Z,0.60
2022-11-27T23:17:24.420Z,0.54
2022-11-27T23:19:53.126Z,0.55
2022-11-27T23:22:21.605Z,0.57
2022-11-27T23:24:50.010Z,0.58
2022-11-27T23:27:18.435Z,0.61
2022-11-27T23:29:47.449Z,0.60
2022-11-27T23:32:16.279Z,0.59
2022-11-27T23:34:49.151Z,0.58
2022-11-27T23:37:17.985Z,0.57
2022-11-27T23:39:46.742Z,0.60
2022-11-27T23:42:16.408Z,0.60
2022-11-27T23:44:45.243Z,0.58
2022-11-27T23:47:14.769Z,0.59
2022-11-27T23:49:43.509Z,0.58
2022-11-27T23:52:17.133Z,0.56
2022-11-27T23:54:44.691Z,0.57
2022-11-27T23:57:15.331Z,0.59
2022-11-27T23:59:44.331Z,0.58
